Airfield :
LOGIN :

Register | Disclaimer

   EN    FR    IT 

 










Legend :    VFR   Marginal VFR   IFR   Intensive IFR   Very Intensive IFR
Visi :
Ceiling :
>= 8 km
>= 3000ft
5 to 8 km
1000 to 3000 ft
1500m to 5 km
500 to 1000 ft
800 to 1500m
200 to 500 ft
< 800m
< 200 ft
Symbols :   Thunderstorms  Fog  Heavy snow  Heavy precipitations  Wind > 20 kt
SIGMETs :     Misc.  Thunderstorms  Icing  Turbulence  Mountain Waves  Volcanic Ashes






- Airport Elevation : 24 ft
- IATA code : SGD


EKSB - Sonderborg

CURRENT METAR :
  • 290750Z AUTO 27004KT 200V320 9999 FEW015/// 12/08 Q1010

EXPIRED METARs :
  • 290720Z AUTO 25005KT 210V300 9999 BKN013/// 12/08 Q1009
  • 290650Z AUTO 31003KT 9999 BKN013/// 11/08 Q1009
  • 290620Z AUTO 31006KT 270V340 9999 BKN012/// 11/08 Q1009
  • 290550Z AUTO 29004KT 240V310 9999 FEW013/// 11/08 Q1009
  • 290520Z AUTO 26004KT 9999 FEW013/// 10/09 Q1009

Expired Forecast.



MET'MAP, your aeronautical weather chart ! - Copyright ORBIFLY December 2007 - Disclaimer

ORBIFLY MET'MAP TEAM :

Programming & Development : Alexandra Zaïnal
Original concept : Baudouin d'Aumeries
Technical & hardware support : Manuel Goepfert
Assistance : Marc-Olivier Méhu

Contact : metmap@orbifly.com




SOURCES & CREDITS :

   NOAA